createdAt,value
2023-03-31T00:00:19.022Z,97722.87
2023-03-31T00:01:21.923Z,97720.72
2023-03-31T00:02:24.879Z,97719.28
2023-03-31T00:03:28.117Z,97728.03
2023-03-31T00:04:32.426Z,97718.66
2023-03-31T00:05:37.695Z,97728.19
2023-03-31T00:06:42.382Z,97717.06
2023-03-31T00:07:46.265Z,97718.38
2023-03-31T00:08:52.558Z,97715.63
2023-03-31T00:10:07.147Z,97717.75
2023-03-31T00:11:22.097Z,97723.09
2023-03-31T00:12:24.998Z,97726.66
2023-03-31T00:13:28.415Z,97719.16
2023-03-31T00:14:31.247Z,97708.44
2023-03-31T00:15:34.019Z,97710.78
2023-03-31T00:16:39.067Z,97709.00
2023-03-31T00:17:41.831Z,97711.94
2023-03-31T00:18:47.875Z,97706.19
2023-03-31T00:19:51.583Z,97719.75
2023-03-31T00:20:54.680Z,97711.34
2023-03-31T00:22:02.230Z,97714.37
2023-03-31T00:23:11.309Z,97711.81
2023-03-31T00:24:15.818Z,97719.06
2023-03-31T00:25:18.678Z,97715.00
2023-03-31T00:26:22.911Z,97725.69
2023-03-31T00:27:25.670Z,97721.81
2023-03-31T00:28:28.395Z,97723.44
2023-03-31T00:29:33.892Z,97717.66
2023-03-31T00:30:36.850Z,97715.94
2023-03-31T00:31:39.946Z,97712.03
2023-03-31T00:32:42.973Z,97717.09
2023-03-31T00:33:45.814Z,97703.16
2023-03-31T00:34:48.437Z,97700.94
2023-03-31T00:35:54.089Z,97704.38
2023-03-31T00:36:58.028Z,97708.88
2023-03-31T00:38:00.906Z,97699.22
2023-03-31T00:39:09.586Z,97704.00
2023-03-31T00:40:12.563Z,97700.66
2023-03-31T00:41:16.247Z,97693.75
2023-03-31T00:42:19.270Z,97699.81
2023-03-31T00:43:42.564Z,97700.41
2023-03-31T00:45:19.018Z,97696.66
2023-03-31T00:46:31.395Z,97698.09
2023-03-31T00:47:35.404Z,97693.63
2023-03-31T00:48:38.598Z,97699.41
2023-03-31T00:49:46.622Z,97693.94
2023-03-31T00:50:54.477Z,97698.09
2023-03-31T00:52:25.100Z,97698.53
2023-03-31T00:53:32.706Z,97698.81
2023-03-31T00:54:38.112Z,97696.50
2023-03-31T00:55:45.648Z,97699.13
2023-03-31T00:56:50.384Z,97699.81
2023-03-31T00:57:54.002Z,97690.16
2023-03-31T00:59:02.242Z,97694.66
2023-03-31T01:00:19.206Z,97683.69
2023-03-31T01:01:27.055Z,97698.53
2023-03-31T01:02:29.774Z,97685.06
2023-03-31T01:03:33.674Z,97680.75
2023-03-31T01:04:42.703Z,97681.94
2023-03-31T01:06:05.203Z,97688.75
2023-03-31T01:07:34.544Z,97687.75
2023-03-31T01:08:38.887Z,97682.72
2023-03-31T01:09:42.231Z,97680.53
2023-03-31T01:11:02.427Z,97679.81
2023-03-31T01:12:09.329Z,97679.94
2023-03-31T01:13:15.059Z,97673.06
2023-03-31T01:14:17.938Z,97676.09
2023-03-31T01:15:20.773Z,97668.44
2023-03-31T01:16:24.221Z,97668.59
2023-03-31T01:17:30.246Z,97667.19
2023-03-31T01:18:36.541Z,97674.13
2023-03-31T01:20:14.787Z,97673.97
2023-03-31T01:21:20.487Z,97676.00
2023-03-31T01:23:00.266Z,97673.44
2023-03-31T01:24:11.612Z,97673.75
2023-03-31T01:26:15.998Z,97672.88
2023-03-31T01:27:44.175Z,97674.78
2023-03-31T01:29:08.902Z,97672.72
2023-03-31T01:30:20.850Z,97670.00
2023-03-31T01:31:23.859Z,97677.19
2023-03-31T01:33:04.942Z,97687.16
2023-03-31T01:34:22.471Z,97678.81
2023-03-31T01:35:48.317Z,97679.53
2023-03-31T01:37:23.624Z,97682.41
2023-03-31T01:39:03.945Z,97680.53
2023-03-31T01:40:31.281Z,97684.59
2023-03-31T01:42:08.568Z,97679.66
2023-03-31T01:43:35.875Z,97683.16
2023-03-31T01:45:03.183Z,97685.19
2023-03-31T01:46:14.454Z,97679.25
2023-03-31T01:47:25.803Z,97679.13
2023-03-31T01:48:57.816Z,97680.31
2023-03-31T01:50:08.478Z,97680.84
2023-03-31T01:51:17.096Z,97678.72
2023-03-31T01:52:32.963Z,97682.59
2023-03-31T01:54:23.757Z,97684.75
2023-03-31T01:55:44.320Z,97684.47
2023-03-31T01:56:53.997Z,97685.03
2023-03-31T01:58:08.101Z,97686.31
2023-03-31T01:59:39.931Z,97682.44
2023-03-31T02:00:52.160Z,97687.47
2023-03-31T02:02:01.768Z,97686.03
2023-03-31T02:03:12.297Z,97685.75
2023-03-31T02:04:20.987Z,97688.34
2023-03-31T02:05:31.964Z,97687.19
2023-03-31T02:06:40.572Z,97685.16
2023-03-31T02:07:50.485Z,97684.59
2023-03-31T02:09:02.684Z,97679.97
2023-03-31T02:10:09.897Z,97690.06
2023-03-31T02:11:13.619Z,97683.75
2023-03-31T02:12:17.564Z,97681.28
2023-03-31T02:13:23.025Z,97680.84
2023-03-31T02:14:30.141Z,97685.59
2023-03-31T02:15:39.160Z,97675.53
2023-03-31T02:16:47.795Z,97675.09
2023-03-31T02:17:56.842Z,97668.47
2023-03-31T02:19:06.114Z,97673.81
2023-03-31T02:20:15.603Z,97659.53
2023-03-31T02:21:20.853Z,97665.28
2023-03-31T02:22:24.375Z,97665.16
2023-03-31T02:23:32.102Z,97662.13
2023-03-31T02:24:37.953Z,97660.09
2023-03-31T02:25:57.381Z,97663.00
2023-03-31T02:27:12.902Z,97658.94
2023-03-31T02:28:22.515Z,97661.25
2023-03-31T02:29:25.467Z,97663.38
2023-03-31T02:30:41.074Z,97668.41
2023-03-31T02:31:54.615Z,97663.94
2023-03-31T02:32:58.179Z,97664.94
2023-03-31T02:34:01.642Z,97656.62
2023-03-31T02:35:06.370Z,97653.19
2023-03-31T02:36:10.193Z,97651.44
2023-03-31T02:37:13.953Z,97653.56
2023-03-31T02:38:16.826Z,97655.72
2023-03-31T02:39:25.192Z,97659.88
2023-03-31T02:40:27.983Z,97654.16
2023-03-31T02:41:30.993Z,97653.84
2023-03-31T02:42:34.120Z,97653.13
2023-03-31T02:43:36.876Z,97648.81
2023-03-31T02:44:40.336Z,97654.13
2023-03-31T02:45:46.120Z,97652.81
2023-03-31T02:46:50.542Z,97654.41
2023-03-31T02:47:53.864Z,97658.72
2023-03-31T02:49:00.139Z,97654.56
2023-03-31T02:50:06.183Z,97660.19
2023-03-31T02:51:09.158Z,97655.59
2023-03-31T02:52:46.065Z,97653.28
2023-03-31T02:54:15.763Z,97659.03
2023-03-31T02:55:52.075Z,97660.19
2023-03-31T02:57:13.847Z,97649.69
2023-03-31T02:58:49.188Z,97650.66
2023-03-31T03:00:18.164Z,97659.72
2023-03-31T03:01:42.684Z,97652.94
2023-03-31T03:03:08.229Z,97656.97
2023-03-31T03:04:37.245Z,97663.03
2023-03-31T03:05:55.145Z,97660.25
2023-03-31T03:07:33.004Z,97665.25
2023-03-31T03:08:58.349Z,97664.06
2023-03-31T03:10:18.772Z,97663.94
2023-03-31T03:11:34.237Z,97659.63
2023-03-31T03:12:59.038Z,97662.22
2023-03-31T03:14:13.879Z,97653.87
2023-03-31T03:15:19.469Z,97651.88
2023-03-31T03:16:27.603Z,97663.25
2023-03-31T03:17:36.470Z,97648.59
2023-03-31T03:18:39.710Z,97646.87
2023-03-31T03:19:43.207Z,97648.47
2023-03-31T03:20:51.167Z,97649.88
2023-03-31T03:21:54.462Z,97656.19
2023-03-31T03:22:57.650Z,97650.31
2023-03-31T03:24:01.802Z,97645.25
2023-03-31T03:25:10.681Z,97648.59
2023-03-31T03:26:13.448Z,97650.75
2023-03-31T03:27:16.261Z,97651.63
2023-03-31T03:28:19.189Z,97649.06
2023-03-31T03:29:22.522Z,97650.03
2023-03-31T03:30:25.978Z,97649.16
2023-03-31T03:31:28.798Z,97653.34
2023-03-31T03:32:33.900Z,97646.28
2023-03-31T03:33:37.110Z,97654.94
2023-03-31T03:34:39.864Z,97652.78
2023-03-31T03:35:43.489Z,97644.16
2023-03-31T03:36:47.234Z,97645.16
2023-03-31T03:37:50.108Z,97646.87
2023-03-31T03:38:53.011Z,97657.78
2023-03-31T03:39:56.012Z,97649.03
2023-03-31T03:40:58.744Z,97647.13
2023-03-31T03:42:01.504Z,97649.16
2023-03-31T03:43:04.295Z,97641.34
2023-03-31T03:44:06.979Z,97649.56
2023-03-31T03:45:10.044Z,97644.66
2023-03-31T03:46:13.481Z,97642.91
2023-03-31T03:47:16.480Z,97643.50
2023-03-31T03:48:19.538Z,97639.03
2023-03-31T03:49:22.794Z,97640.75
2023-03-31T03:50:25.562Z,97640.75
2023-03-31T03:51:28.508Z,97641.88
2023-03-31T03:52:31.201Z,97645.75
2023-03-31T03:53:34.313Z,97652.81
2023-03-31T03:54:36.992Z,97651.81
2023-03-31T03:55:39.738Z,97645.22
2023-03-31T03:56:42.811Z,97645.69
2023-03-31T03:57:45.710Z,97643.25
2023-03-31T03:58:48.839Z,97651.16
2023-03-31T03:59:51.577Z,97651.16
2023-03-31T04:00:54.285Z,97649.25
2023-03-31T04:01:57.169Z,97654.97
2023-03-31T04:03:00.100Z,97649.94
2023-03-31T04:04:03.970Z,97645.91
2023-03-31T04:05:07.005Z,97647.22
2023-03-31T04:06:09.946Z,97648.31
2023-03-31T04:07:13.132Z,97646.31
2023-03-31T04:08:16.205Z,97634.81
2023-03-31T04:09:18.912Z,97639.31
2023-03-31T04:10:21.665Z,97639.47
2023-03-31T04:11:24.709Z,97639.47
2023-03-31T04:12:27.646Z,97629.09
2023-03-31T04:13:30.420Z,97626.94
2023-03-31T04:14:33.092Z,97621.78
2023-03-31T04:15:36.145Z,97622.50
2023-03-31T04:16:40.878Z,97621.78
2023-03-31T04:17:51.209Z,97621.66
2023-03-31T04:18:57.260Z,97612.16
2023-03-31T04:20:07.866Z,97616.63
2023-03-31T04:21:15.999Z,97619.38
2023-03-31T04:22:20.770Z,97620.81
2023-03-31T04:23:26.790Z,97626.81
2023-03-31T04:24:33.395Z,97621.75
2023-03-31T04:25:38.847Z,97622.91
2023-03-31T04:26:45.006Z,97629.22
2023-03-31T04:27:55.481Z,97630.06
2023-03-31T04:29:02.007Z,97619.84
2023-03-31T04:30:05.285Z,97628.19
2023-03-31T04:31:11.039Z,97621.88
2023-03-31T04:32:15.355Z,97629.16
2023-03-31T04:33:19.235Z,97634.94
2023-03-31T04:34:22.398Z,97623.63
2023-03-31T04:35:27.585Z,97630.66
2023-03-31T04:36:31.847Z,97626.62
2023-03-31T04:37:39.002Z,97618.44
2023-03-31T04:38:41.688Z,97620.16
2023-03-31T04:39:46.970Z,97611.25
2023-03-31T04:40:51.979Z,97620.03
2023-03-31T04:41:54.777Z,97619.00
2023-03-31T04:42:57.581Z,97626.34
2023-03-31T04:44:00.459Z,97621.28
2023-03-31T04:45:03.852Z,97621.28
2023-03-31T04:46:06.989Z,97621.88
2023-03-31T04:47:10.070Z,97626.59
2023-03-31T04:48:13.160Z,97627.16
2023-03-31T04:49:16.309Z,97630.87
2023-03-31T04:50:19.139Z,97620.38
2023-03-31T04:51:21.925Z,97634.59
2023-03-31T04:52:24.671Z,97614.75
2023-03-31T04:53:27.687Z,97620.22
2023-03-31T04:54:30.733Z,97623.25
2023-03-31T04:55:33.728Z,97624.22
2023-03-31T04:56:36.564Z,97618.62
2023-03-31T04:57:39.499Z,97624.09
2023-03-31T04:58:42.395Z,97619.75
2023-03-31T04:59:45.105Z,97614.00
2023-03-31T05:00:48.306Z,97610.28
2023-03-31T05:01:51.425Z,97607.03
2023-03-31T05:02:54.188Z,97609.59
2023-03-31T05:03:56.930Z,97608.44
2023-03-31T05:04:59.616Z,97611.41
2023-03-31T05:06:02.567Z,97614.16
2023-03-31T05:07:05.742Z,97607.41
2023-03-31T05:08:08.744Z,97613.28
2023-03-31T05:09:11.605Z,97606.56
2023-03-31T05:10:14.967Z,97605.31
2023-03-31T05:11:17.899Z,97599.56
2023-03-31T05:12:20.999Z,97592.06
2023-03-31T05:13:23.811Z,97597.19
2023-03-31T05:14:26.643Z,97590.03
2023-03-31T05:15:29.618Z,97601.34
2023-03-31T05:16:32.402Z,97600.91
2023-03-31T05:17:36.703Z,97595.16
2023-03-31T05:18:39.677Z,97601.88
2023-03-31T05:19:42.480Z,97603.50
2023-03-31T05:20:45.530Z,97599.66
2023-03-31T05:21:49.176Z,97591.75
2023-03-31T05:22:52.378Z,97597.63
2023-03-31T05:23:55.253Z,97601.63
2023-03-31T05:24:58.054Z,97599.78
2023-03-31T05:26:00.997Z,97591.19
2023-03-31T05:27:03.879Z,97599.25
2023-03-31T05:28:06.708Z,97597.12
2023-03-31T05:29:09.558Z,97594.00
2023-03-31T05:30:12.875Z,97594.44
2023-03-31T05:31:15.608Z,97594.03
2023-03-31T05:32:18.332Z,97598.59
2023-03-31T05:33:21.097Z,97592.87
2023-03-31T05:34:23.835Z,97597.78
2023-03-31T05:35:26.714Z,97590.59
2023-03-31T05:36:29.779Z,97593.50
2023-03-31T05:37:32.535Z,97590.50
2023-03-31T05:38:35.876Z,97591.34
2023-03-31T05:39:38.719Z,97592.22
2023-03-31T05:40:41.816Z,97600.00
2023-03-31T05:41:44.555Z,97598.28
2023-03-31T05:42:47.155Z,97592.53
2023-03-31T05:43:49.892Z,97597.72
2023-03-31T05:44:52.600Z,97589.25
2023-03-31T05:45:55.520Z,97597.59
2023-03-31T05:46:58.320Z,97595.31
2023-03-31T05:48:01.736Z,97589.72
2023-03-31T05:49:04.621Z,97590.16
2023-03-31T05:50:09.571Z,97585.13
2023-03-31T05:51:12.354Z,97584.84
2023-03-31T05:52:15.169Z,97590.00
2023-03-31T05:53:17.884Z,97586.56
2023-03-31T05:54:20.906Z,97592.87
2023-03-31T05:55:23.821Z,97598.91
2023-03-31T05:56:27.774Z,97593.84
2023-03-31T05:57:30.809Z,97589.84
2023-03-31T05:58:37.150Z,97600.50
2023-03-31T05:59:42.304Z,97590.97
2023-03-31T06:00:45.613Z,97590.69
2023-03-31T06:01:48.889Z,97596.47
2023-03-31T06:02:52.217Z,97587.22
2023-03-31T06:03:54.994Z,97598.31
2023-03-31T06:04:57.822Z,97593.84
2023-03-31T06:06:02.427Z,97580.56
2023-03-31T06:07:05.699Z,97594.38
2023-03-31T06:08:08.448Z,97591.63
2023-03-31T06:09:12.739Z,97592.50
2023-03-31T06:10:16.249Z,97591.03
2023-03-31T06:11:21.426Z,97594.75
2023-03-31T06:12:24.057Z,97587.97
2023-03-31T06:13:26.878Z,97595.03
2023-03-31T06:14:30.016Z,97588.38
2023-03-31T06:15:32.852Z,97593.09
2023-03-31T06:16:35.678Z,97590.19
2023-03-31T06:17:39.148Z,97596.53
2023-03-31T06:18:42.414Z,97598.81
2023-03-31T06:19:45.341Z,97584.06
2023-03-31T06:20:48.043Z,97589.81
2023-03-31T06:21:51.405Z,97586.63
2023-03-31T06:22:54.048Z,97589.31
2023-03-31T06:23:58.530Z,97588.88
2023-03-31T06:25:01.408Z,97581.62
2023-03-31T06:26:08.503Z,97586.06
2023-03-31T06:27:11.309Z,97581.69
2023-03-31T06:28:14.535Z,97584.81
2023-03-31T06:29:17.217Z,97581.81
2023-03-31T06:30:20.023Z,97581.22
2023-03-31T06:31:25.125Z,97584.22
2023-03-31T06:32:27.914Z,97582.06
2023-03-31T06:33:30.938Z,97584.22
2023-03-31T06:34:33.795Z,97589.97
2023-03-31T06:35:40.652Z,97585.47
2023-03-31T06:36:43.478Z,97583.53
2023-03-31T06:37:46.925Z,97584.97
2023-03-31T06:38:51.304Z,97590.16
2023-03-31T06:39:54.368Z,97577.97
2023-03-31T06:40:57.092Z,97571.44
2023-03-31T06:42:00.122Z,97577.41
2023-03-31T06:43:02.832Z,97580.31
2023-03-31T06:44:05.991Z,97577.22
2023-03-31T06:45:09.100Z,97571.25
2023-03-31T06:46:12.572Z,97570.81
2023-03-31T06:47:15.466Z,97572.16
2023-03-31T06:48:18.275Z,97571.09
2023-03-31T06:49:21.507Z,97567.28
2023-03-31T06:50:24.438Z,97573.25
2023-03-31T06:51:27.281Z,97570.63
2023-03-31T06:52:31.723Z,97572.66
2023-03-31T06:53:35.729Z,97572.44
2023-03-31T06:54:38.624Z,97574.22
2023-03-31T06:55:41.292Z,97575.66
2023-03-31T06:56:44.285Z,97575.78
2023-03-31T06:57:47.088Z,97583.53
2023-03-31T06:58:50.141Z,97577.56
2023-03-31T06:59:52.961Z,97581.38
2023-03-31T07:00:55.981Z,97583.22
2023-03-31T07:01:58.853Z,97581.38
2023-03-31T07:03:02.141Z,97583.91
2023-03-31T07:04:05.540Z,97587.63
2023-03-31T07:05:08.247Z,97587.84
2023-03-31T07:06:11.235Z,97588.78
2023-03-31T07:07:14.012Z,97591.16
2023-03-31T07:08:20.332Z,97589.72
2023-03-31T07:09:23.809Z,97581.72
2023-03-31T07:10:29.716Z,97588.03
2023-03-31T07:11:32.595Z,97585.87
2023-03-31T07:12:35.320Z,97577.94
2023-03-31T07:13:37.972Z,97588.81
2023-03-31T07:14:40.785Z,97586.50
2023-03-31T07:15:44.788Z,97586.72
2023-03-31T07:16:47.680Z,97585.56
2023-03-31T07:18:02.199Z,97586.03
2023-03-31T07:19:06.082Z,97582.91
2023-03-31T07:20:19.283Z,97583.03
2023-03-31T07:21:22.079Z,97576.53
2023-03-31T07:22:24.714Z,97575.94
2023-03-31T07:23:28.104Z,97576.16
2023-03-31T07:24:31.210Z,97573.41
2023-03-31T07:25:34.275Z,97578.06
2023-03-31T07:26:37.306Z,97575.44
2023-03-31T07:27:40.890Z,97568.63
2023-03-31T07:28:43.733Z,97573.84
2023-03-31T07:29:46.739Z,97571.53
2023-03-31T07:30:49.699Z,97571.97
2023-03-31T07:31:53.138Z,97566.44
2023-03-31T07:32:55.931Z,97563.09
2023-03-31T07:33:58.736Z,97563.09
2023-03-31T07:35:01.612Z,97566.06
2023-03-31T07:36:12.775Z,97565.66
2023-03-31T07:37:16.915Z,97554.66
2023-03-31T07:38:19.767Z,97562.66
2023-03-31T07:39:22.808Z,97550.94
2023-03-31T07:40:28.990Z,97554.91
2023-03-31T07:41:36.311Z,97551.53
2023-03-31T07:42:39.313Z,97552.47
2023-03-31T07:43:42.532Z,97551.66
2023-03-31T07:44:45.424Z,97550.62
2023-03-31T07:45:48.476Z,97553.00
2023-03-31T07:46:51.338Z,97546.66
2023-03-31T07:47:54.831Z,97541.25
2023-03-31T07:48:58.828Z,97551.34
2023-03-31T07:50:01.608Z,97548.72
2023-03-31T07:51:04.719Z,97549.44
2023-03-31T07:52:07.555Z,97549.44
2023-03-31T07:53:10.905Z,97553.63
2023-03-31T07:54:13.703Z,97552.41
2023-03-31T07:55:16.910Z,97553.00
2023-03-31T07:56:24.878Z,97548.09
2023-03-31T07:57:27.742Z,97541.25
2023-03-31T07:58:30.690Z,97548.41
2023-03-31T07:59:33.434Z,97552.59
2023-03-31T08:00:36.575Z,97552.53
2023-03-31T08:01:39.897Z,97547.94
2023-03-31T08:02:43.549Z,97550.78
2023-03-31T08:03:48.500Z,97549.63
2023-03-31T08:04:51.166Z,97545.50
2023-03-31T08:05:54.642Z,97548.75
2023-03-31T08:06:57.907Z,97548.94
2023-03-31T08:08:00.756Z,97547.78
2023-03-31T08:09:05.363Z,97543.34
2023-03-31T08:10:13.371Z,97537.31
2023-03-31T08:11:17.072Z,97536.88
2023-03-31T08:12:20.046Z,97536.59
2023-03-31T08:13:22.854Z,97538.91
2023-03-31T08:14:40.011Z,97529.47
2023-03-31T08:15:44.212Z,97532.50
2023-03-31T08:16:47.120Z,97523.50
2023-03-31T08:17:50.223Z,97519.22
2023-03-31T08:18:53.159Z,97525.72
2023-03-31T08:19:56.383Z,97530.41
2023-03-31T08:20:59.248Z,97518.56
2023-03-31T08:22:02.064Z,97517.53
2023-03-31T08:23:09.242Z,97519.84
2023-03-31T08:24:12.025Z,97528.06
2023-03-31T08:25:14.831Z,97520.47
2023-03-31T08:26:24.423Z,97521.66
2023-03-31T08:27:27.128Z,97511.81
2023-03-31T08:28:29.831Z,97505.59
2023-03-31T08:29:33.509Z,97501.13
2023-03-31T08:30:38.487Z,97498.16
2023-03-31T08:31:41.220Z,97500.63
2023-03-31T08:32:44.673Z,97496.41
2023-03-31T08:33:47.998Z,97495.69
2023-03-31T08:34:51.812Z,97490.69
2023-03-31T08:35:54.518Z,97487.81
2023-03-31T08:36:57.525Z,97488.94
2023-03-31T08:38:00.600Z,97489.91
2023-03-31T08:39:04.921Z,97492.84
2023-03-31T08:40:15.433Z,97487.06
2023-03-31T08:41:31.009Z,97489.91
2023-03-31T08:42:49.377Z,97484.69
2023-03-31T08:43:56.434Z,97477.16
2023-03-31T08:45:19.349Z,97476.00
2023-03-31T08:46:22.788Z,97476.31
2023-03-31T08:47:29.883Z,97472.44
2023-03-31T08:48:45.551Z,97467.31
2023-03-31T08:49:59.483Z,97469.87
2023-03-31T08:51:12.040Z,97463.13
2023-03-31T08:52:23.891Z,97456.50
2023-03-31T08:53:29.249Z,97465.34
2023-03-31T08:54:37.256Z,97458.22
2023-03-31T08:55:57.043Z,97459.19
2023-03-31T08:57:00.845Z,97455.91
2023-03-31T08:58:29.783Z,97450.38
2023-03-31T08:59:36.495Z,97451.22
2023-03-31T09:01:03.710Z,97456.00
2023-03-31T09:02:25.268Z,97452.66
2023-03-31T09:04:13.091Z,97454.87
2023-03-31T09:05:24.145Z,97445.84
2023-03-31T09:07:02.805Z,97441.81
2023-03-31T09:08:21.074Z,97447.22
2023-03-31T09:09:45.934Z,97442.19
2023-03-31T09:10:58.754Z,97440.94
2023-03-31T09:12:10.864Z,97431.47
2023-03-31T09:13:45.198Z,97438.22
2023-03-31T09:14:59.499Z,97437.28
2023-03-31T09:16:08.070Z,97436.78
2023-03-31T09:17:45.323Z,97435.56
2023-03-31T09:18:50.510Z,97439.19
2023-03-31T09:19:59.137Z,97437.78
2023-03-31T09:21:25.387Z,97437.12
2023-03-31T09:22:33.797Z,97428.25
2023-03-31T09:23:43.409Z,97424.69
2023-03-31T09:24:52.771Z,97428.62
2023-03-31T09:25:58.220Z,97422.44
2023-03-31T09:27:05.121Z,97416.91
2023-03-31T09:28:20.242Z,97418.47
2023-03-31T09:29:32.308Z,97415.75
2023-03-31T09:30:38.302Z,97421.22
2023-03-31T09:31:43.516Z,97414.75
2023-03-31T09:32:53.129Z,97417.94
2023-03-31T09:34:01.884Z,97420.75
2023-03-31T09:35:26.008Z,97418.25
2023-03-31T09:36:29.049Z,97419.63
2023-03-31T09:37:33.480Z,97409.81
2023-03-31T09:38:36.829Z,97407.75
2023-03-31T09:39:42.767Z,97404.91
2023-03-31T09:40:46.017Z,97403.28
2023-03-31T09:41:51.557Z,97400.69
2023-03-31T09:43:02.090Z,97405.44
2023-03-31T09:44:05.730Z,97410.19
2023-03-31T09:45:16.319Z,97408.13
2023-03-31T09:46:30.513Z,97400.38
2023-03-31T09:47:43.074Z,97404.59
2023-03-31T09:49:02.900Z,97402.25
2023-03-31T09:50:08.078Z,97399.88
2023-03-31T09:51:20.488Z,97403.47
2023-03-31T09:52:35.435Z,97393.47
2023-03-31T09:53:43.837Z,97403.59
2023-03-31T09:54:54.408Z,97391.59
2023-03-31T09:56:02.707Z,97386.09
2023-03-31T09:57:24.482Z,97388.28
2023-03-31T09:58:27.427Z,97387.81
2023-03-31T09:59:36.220Z,97390.78
2023-03-31T10:00:42.498Z,97388.59
2023-03-31T10:01:48.054Z,97383.94
2023-03-31T10:02:56.371Z,97372.97
2023-03-31T10:03:59.165Z,97371.63
2023-03-31T10:05:03.892Z,97370.47
2023-03-31T10:06:11.682Z,97376.03
2023-03-31T10:07:23.371Z,97365.34
2023-03-31T10:08:32.906Z,97367.28
2023-03-31T10:09:39.061Z,97362.19
2023-03-31T10:11:06.667Z,97368.72
2023-03-31T10:12:17.383Z,97362.56
2023-03-31T10:13:46.866Z,97362.03
2023-03-31T10:14:52.209Z,97358.22
2023-03-31T10:16:08.649Z,97359.69
2023-03-31T10:17:16.195Z,97356.16
2023-03-31T10:18:21.354Z,97354.94
2023-03-31T10:19:27.919Z,97353.44
2023-03-31T10:20:39.516Z,97352.38
2023-03-31T10:21:47.376Z,97339.84
2023-03-31T10:22:51.393Z,97352.56
2023-03-31T10:23:55.519Z,97352.81
2023-03-31T10:25:20.802Z,97352.28
2023-03-31T10:26:27.901Z,97347.31
2023-03-31T10:27:31.826Z,97343.00
2023-03-31T10:28:36.386Z,97340.69
2023-03-31T10:29:39.322Z,97337.62
2023-03-31T10:30:50.077Z,97333.28
2023-03-31T10:31:53.342Z,97326.47
2023-03-31T10:32:56.977Z,97336.47
2023-03-31T10:34:05.299Z,97338.63
2023-03-31T10:35:35.633Z,97337.66
2023-03-31T10:36:39.795Z,97340.81
2023-03-31T10:37:42.619Z,97333.47
2023-03-31T10:38:48.689Z,97341.53
2023-03-31T10:40:00.538Z,97334.13
2023-03-31T10:41:04.335Z,97337.62
2023-03-31T10:42:07.776Z,97331.16
2023-03-31T10:43:21.386Z,97322.56
2023-03-31T10:44:39.181Z,97321.94
2023-03-31T10:45:55.036Z,97324.94
2023-03-31T10:47:17.228Z,97324.66
2023-03-31T10:48:49.390Z,97319.84
2023-03-31T10:49:57.874Z,97328.06
2023-03-31T10:51:06.892Z,97319.25
2023-03-31T10:52:22.446Z,97320.84
2023-03-31T10:53:25.240Z,97314.56
2023-03-31T10:54:27.931Z,97322.56
2023-03-31T10:55:36.876Z,97319.75
2023-03-31T10:56:48.672Z,97322.91
2023-03-31T10:58:23.998Z,97311.22
2023-03-31T10:59:53.725Z,97315.56
2023-03-31T11:00:58.031Z,97315.22
2023-03-31T11:02:22.510Z,97312.72
2023-03-31T11:03:37.274Z,97313.75
2023-03-31T11:05:08.744Z,97314.41
2023-03-31T11:06:28.930Z,97317.81
2023-03-31T11:07:37.484Z,97310.56
2023-03-31T11:08:54.577Z,97306.88
2023-03-31T11:10:22.528Z,97301.06
2023-03-31T11:11:49.790Z,97309.22
2023-03-31T11:13:15.569Z,97310.25
2023-03-31T11:14:44.473Z,97312.59
2023-03-31T11:16:08.149Z,97297.88
2023-03-31T11:17:11.018Z,97294.63
2023-03-31T11:18:44.514Z,97302.13
2023-03-31T11:20:07.085Z,97282.44
2023-03-31T11:21:26.455Z,97284.25
2023-03-31T11:22:34.877Z,97294.19
2023-03-31T11:23:37.446Z,97283.50
2023-03-31T11:25:06.402Z,97284.47
2023-03-31T11:26:21.985Z,97272.44
2023-03-31T11:27:31.047Z,97279.16
2023-03-31T11:28:44.414Z,97265.56
2023-03-31T11:29:53.977Z,97271.09
2023-03-31T11:31:18.179Z,97262.22
2023-03-31T11:32:48.326Z,97262.88
2023-03-31T11:34:17.048Z,97260.53
2023-03-31T11:35:45.675Z,97249.34
2023-03-31T11:37:01.349Z,97238.03
2023-03-31T11:38:23.981Z,97235.91
2023-03-31T11:39:41.732Z,97238.69
2023-03-31T11:41:13.738Z,97230.22
2023-03-31T11:42:26.392Z,97228.22
2023-03-31T11:43:34.866Z,97223.31
2023-03-31T11:44:48.526Z,97218.25
2023-03-31T11:46:03.822Z,97225.84
2023-03-31T11:47:10.828Z,97223.53
2023-03-31T11:48:39.206Z,97222.53
2023-03-31T11:49:48.161Z,97209.72
2023-03-31T11:50:52.727Z,97210.19
2023-03-31T11:52:14.609Z,97203.63
2023-03-31T11:53:23.990Z,97206.22
2023-03-31T11:54:33.535Z,97209.16
2023-03-31T11:55:38.815Z,97199.59
2023-03-31T11:56:41.949Z,97200.19
2023-03-31T11:58:05.270Z,97197.91
2023-03-31T11:59:15.755Z,97187.53
2023-03-31T12:00:21.006Z,97191.41
2023-03-31T12:01:33.878Z,97187.66
2023-03-31T12:02:48.818Z,97178.75
2023-03-31T12:04:13.223Z,97176.81
2023-03-31T12:05:18.130Z,97169.06
2023-03-31T12:06:28.220Z,97175.50
2023-03-31T12:07:42.863Z,97179.63
2023-03-31T12:09:23.403Z,97174.19
2023-03-31T12:10:43.236Z,97175.97
2023-03-31T12:12:00.940Z,97167.44
2023-03-31T12:13:25.609Z,97175.19
2023-03-31T12:14:35.462Z,97177.53
2023-03-31T12:15:42.273Z,97170.12
2023-03-31T12:16:56.252Z,97164.50
2023-03-31T12:18:03.672Z,97160.94
2023-03-31T12:19:18.975Z,97156.13
2023-03-31T12:20:31.673Z,97157.69
2023-03-31T12:21:39.106Z,97153.00
2023-03-31T12:22:47.509Z,97151.16
2023-03-31T12:23:50.396Z,97153.94
2023-03-31T12:24:53.785Z,97154.09
2023-03-31T12:25:59.984Z,97152.47
2023-03-31T12:27:18.865Z,97163.59
2023-03-31T12:28:23.570Z,97159.28
2023-03-31T12:29:41.841Z,97161.22
2023-03-31T12:30:46.711Z,97160.31
2023-03-31T12:31:53.372Z,97155.16
2023-03-31T12:33:03.052Z,97152.25
2023-03-31T12:34:12.823Z,97153.94
2023-03-31T12:35:27.591Z,97156.91
2023-03-31T12:37:04.591Z,97154.72
2023-03-31T12:38:36.725Z,97157.41
2023-03-31T12:40:01.178Z,97151.06
2023-03-31T12:41:17.865Z,97146.12
2023-03-31T12:42:56.997Z,97140.84
2023-03-31T12:44:24.216Z,97141.63
2023-03-31T12:45:50.089Z,97142.63
2023-03-31T12:46:55.510Z,97133.00
2023-03-31T12:48:28.988Z,97135.41
2023-03-31T12:49:34.647Z,97121.38
2023-03-31T12:50:53.746Z,97121.59
2023-03-31T12:52:17.285Z,97113.81
2023-03-31T12:53:47.887Z,97109.16
2023-03-31T12:55:06.166Z,97125.25
2023-03-31T12:56:09.140Z,97109.19
2023-03-31T12:57:21.594Z,97112.34
2023-03-31T12:58:33.228Z,97107.16
2023-03-31T12:59:41.249Z,97107.84
2023-03-31T13:01:22.235Z,97105.03
2023-03-31T13:02:26.747Z,97109.09
2023-03-31T13:03:43.939Z,97114.75
2023-03-31T13:04:46.675Z,97106.44
2023-03-31T13:05:49.556Z,97103.19
2023-03-31T13:06:59.943Z,97106.84
2023-03-31T13:08:07.948Z,97105.09
2023-03-31T13:09:13.432Z,97102.00
2023-03-31T13:10:18.827Z,97091.56
2023-03-31T13:11:23.433Z,97096.53
2023-03-31T13:12:28.805Z,97093.97
2023-03-31T13:13:31.727Z,97089.22
2023-03-31T13:14:40.536Z,97086.31
2023-03-31T13:15:57.091Z,97080.41
2023-03-31T13:17:19.329Z,97081.09
2023-03-31T13:18:23.184Z,97077.13
2023-03-31T13:19:36.849Z,97068.91
2023-03-31T13:20:42.296Z,97059.41
2023-03-31T13:22:06.394Z,97071.03
2023-03-31T13:23:13.495Z,97064.56
2023-03-31T13:24:19.198Z,97050.41
2023-03-31T13:25:40.605Z,97062.78
2023-03-31T13:26:47.417Z,97055.00
2023-03-31T13:27:51.025Z,97042.25
2023-03-31T13:29:20.443Z,97045.03
2023-03-31T13:30:41.664Z,97046.91